Flight Track Log - Related Links

Times and Time Zones

All times are in EDT time to prevent confusion due to time zone crossing. See the JBU440 flight status page for this flight to view local times or setup timezone preferences in your user account.


Time Position Orientation Groundspeed Altitude Reporting Facility
EDT Latitude Longitude Course Direction KTS MPH feet Rate Location/Type
Tue 10:17:31 AM 27.9500 -82.5500 354° North 163 188 1,200  Level Tampa TRACON
Tue 10:18:07 AM 27.9167 -82.5500 180° South 190 219 2,100 2,447 Climbing Tampa TRACON
Tue 10:20:00 AM 28.4345 -82.5718 355° North  Level FlightAware Approximate
Tue 10:20:03 AM 27.8617 -82.6672 242° Southwest 248 285 7,400  Level Jacksonville Center
Tue 10:21:00 AM 28.5525 -82.5833 North  Level FlightAware Approximate
Tue 10:21:03 AM 27.9161 -82.6858 343° North 167 192 9,900  Level Jacksonville Center
Tue 10:22:00 AM 28.6710 -82.5839 354° North  Level FlightAware Approximate
Tue 10:22:03 AM 28.0119 -82.6644 11° North 186 214 11,600  Level Jacksonville Center
Tue 10:23:03 AM 28.1081 -82.6431 11° North 264 304 14,500 2,250 Climbing Jacksonville Center
Tue 10:24:03 AM 28.2103 -82.6194 12° North 332 382 16,100 1,800 Climbing Jacksonville Center
Tue 10:25:03 AM 28.3164 -82.5931 12° North 367 422 18,100 1,900 Climbing Jacksonville Center
Tue 10:26:03 AM 28.4292 -82.5811 North 387 445 19,900 1,700 Climbing Jacksonville Center
Tue 10:27:03 AM 28.5481 -82.5878 357° North 406 467 21,500 1,700 Climbing Jacksonville Center
Tue 10:28:03 AM 28.6650 -82.5897 359° North 412 474 23,300 1,650 Climbing Jacksonville Center
Tue 10:29:03 AM 28.7819 -82.6036 354° North 423 487 24,800 1,400 Climbing Jacksonville Center
Tue 10:30:03 AM 28.9031 -82.6197 353° North 423 487 26,100 1,200 Climbing Jacksonville Center
Tue 10:31:03 AM 29.0283 -82.6383 353° North 433 498 27,200 1,150 Climbing Jacksonville Center
Tue 10:32:03 AM 29.1536 -82.6547 353° North 446 513 28,400 1,300 Climbing Jacksonville Center
Tue 10:33:03 AM 29.2956 -82.6758 353° North 455 524 29,800 1,500 Climbing Jacksonville Center
Tue 10:34:03 AM 29.4208 -82.6900 354° North 460 529 31,400 1,450 Climbing Jacksonville Center
Tue 10:35:03 AM 29.5481 -82.6944 358° North 460 529 32,700 1,150 Climbing Jacksonville Center
Tue 10:36:03 AM 29.6775 -82.6942 360° North 460 529 33,700 650 Climbing Jacksonville Center
Tue 10:37:03 AM 29.7967 -82.6914 North 452 520 34,000 150 Climbing Jacksonville Center
Tue 10:38:03 AM 29.9219 -82.6911 360° North 445 512 34,000 250 Level Jacksonville Center
Tue 10:39:03 AM 30.0472 -82.6886 North 445 512 34,500 500 Climbing Jacksonville Center
Tue 10:40:03 AM 30.1725 -82.6858 North 445 512 35,000 250 Climbing Jacksonville Center
Tue 10:41:03 AM 30.2956 -82.6856 360° North 439 505 35,000  Level Jacksonville Center
Tue 10:42:03 AM 30.4208 -82.6853 360° North 439 505 35,000 -50 Level Jacksonville Center
Tue 10:43:03 AM 30.5419 -82.6611 10° North 439 505 34,900  Descending Jacksonville Center
Tue 10:44:03 AM 30.6525 -82.6197 18° North 444 511 35,000 50 Climbing Jacksonville Center
Tue 10:45:03 AM 30.7756 -82.5589 23° Northeast 458 527 35,000  Level Jacksonville Center
Tue 10:46:03 AM 30.9006 -82.4956 23° Northeast 471 542 35,000 -50 Level Jacksonville Center
Tue 10:47:03 AM 31.0194 -82.4392 22° Northeast 471 542 34,900 -50 Descending Jacksonville Center
Tue 10:48:03 AM 31.1425 -82.3803 22° Northeast 471 542 34,900 50 Level Jacksonville Center
Tue 10:49:03 AM 31.2675 -82.3164 24° Northeast 476 548 35,000 50 Climbing Jacksonville Center
Tue 10:50:03 AM 31.3925 -82.2572 22° Northeast 476 548 35,000  Level Jacksonville Center
Tue 10:51:03 AM 31.5175 -82.1981 22° Northeast 476 548 35,000  Level Jacksonville Center
Tue 10:52:03 AM 31.6528 -82.1261 24° Northeast 476 548 35,000  Level Jacksonville Center
Tue 10:53:03 AM 31.7756 -82.0667 22° Northeast 475 547 35,000  Level Jacksonville Center
Tue 10:54:03 AM 31.8900 -82.0117 22° Northeast 475 547 35,000  Level Jacksonville Center
Tue 10:55:03 AM 32.0167 -81.9247 30° Northeast 475 547 35,000  Level Jacksonville Center
Tue 10:56:03 AM 32.1100 -81.8356 39° Northeast 475 547 35,000  Level Jacksonville Center
Tue 10:57:03 AM 32.2239 -81.7236 40° Northeast 481 554 35,000  Level Jacksonville Center
Tue 10:58:03 AM 32.3292 -81.6214 39° Northeast 489 563 35,000  Level Jacksonville Center
Tue 10:59:03 AM 32.4222 -81.5292 40° Northeast 484 557 35,000  Level Jacksonville Center
Tue 11:00:03 AM 32.5317 -81.4167 41° Northeast 479 551 35,000  Level Jacksonville Center
Tue 11:01:03 AM 32.6306 -81.3164 40° Northeast 470 541 35,000 -50 Level Jacksonville Center
Tue 11:02:03 AM 32.7317 -81.2133 41° Northeast 475 547 34,900 -50 Descending Jacksonville Center
Tue 11:03:03 AM 32.8303 -81.1125 41° Northeast 475 547 34,900 50 Level Jacksonville Center
Tue 11:04:03 AM 32.9292 -81.0117 41° Northeast 475 547 35,000 50 Climbing Jacksonville Center
Tue 11:05:03 AM 33.0319 -80.9053 41° Northeast 475 547 35,000 -50 Level Jacksonville Center
Tue 11:06:03 AM 33.1306 -80.8064 40° Northeast 475 547 34,900 -50 Descending Jacksonville Center
Tue 11:07:03 AM 33.2269 -80.7100 40° Northeast 470 541 34,900  Level Jacksonville Center
Tue 11:08:03 AM 33.3231 -80.6056 42° Northeast 465 535 34,900 50 Level Jacksonville Center
Tue 11:09:03 AM 33.4194 -80.5036 41° Northeast 460 529 35,000 50 Climbing Jacksonville Center
Tue 11:10:03 AM 33.4942 -80.3794 54° Northeast 454 522 35,000  Level Jacksonville Center
Tue 11:11:03 AM 33.5519 -80.2383 64° Northeast 459 528 35,000  Level Jacksonville Center
Tue 11:12:03 AM 33.5992 -80.1097 66° East 459 528 35,000  Level Jacksonville Center
Tue 11:13:03 AM 33.6481 -79.9611 68° East 464 534 35,000  Level Jacksonville Center
Tue 11:14:03 AM 33.7008 -79.8144 67° East 469 540 35,000  Level Jacksonville Center
Tue 11:15:03 AM 33.7492 -79.6656 69° East 475 547 35,000  Level Jacksonville Center
Tue 11:16:03 AM 33.8017 -79.5211 66° East 475 547 35,000  Level Jacksonville Center
Tue 11:17:03 AM 33.8728 -79.3708 60° Northeast 469 540 35,000  Level Jacksonville Center
Tue 11:18:03 AM 33.9636 -79.2569 46° Northeast 468 539 35,000  Level Jacksonville Center
Tue 11:19:50 AM 34.1514 -79.1100 33° Northeast 473 544 35,000  Level Washington Center
Tue 11:20:51 AM 34.2667 -79.0244 32° Northeast 479 551 35,000  Level Washington Center
Tue 11:21:49 AM 34.3775 -78.9411 32° Northeast 479 551 35,000  Level Washington Center
Tue 11:22:50 AM 34.4944 -78.8553 31° Northeast 479 551 35,000  Level Washington Center
Tue 11:23:51 AM 34.6075 -78.7639 34° Northeast 485 558 35,000  Level Washington Center
Tue 11:24:48 AM 34.7331 -78.6700 32° Northeast 490 564 35,000  Level Washington Center
Tue 11:25:49 AM 34.8311 -78.5956 32° Northeast 478 550 35,000  Level Washington Center
Tue 11:26:50 AM 34.9436 -78.5083 32° Northeast 478 550 35,000  Level Washington Center
Tue 11:27:51 AM 35.0564 -78.4236 32° Northeast 473 544 35,000  Level Washington Center
Tue 11:28:49 AM 35.1669 -78.3336 34° Northeast 473 544 35,000  Level Washington Center
Tue 11:29:50 AM 35.2772 -78.2508 31° Northeast 473 544 35,000  Level Washington Center
Tue 11:30:51 AM 35.3878 -78.1653 32° Northeast 473 544 35,000  Level Washington Center
Tue 11:31:49 AM 35.4981 -78.0819 32° Northeast 468 539 35,000  Level Washington Center
Tue 11:32:50 AM 35.6061 -77.9986 32° Northeast 468 539 35,000  Level Washington Center
Tue 11:33:51 AM 35.7142 -77.9122 33° Northeast 463 533 35,000  Level Washington Center
Tue 11:34:51 AM 35.8222 -77.8258 33° Northeast 463 533 35,000  Level Washington Center
Tue 11:35:49 AM 35.9322 -77.7417 32° Northeast 463 533 35,000  Level Washington Center
Tue 11:36:50 AM 36.0342 -77.6519 35° Northeast 463 533 35,000  Level Washington Center
Tue 11:37:50 AM 36.1378 -77.5569 37° Northeast 458 527 35,000  Level Washington Center
Tue 11:38:51 AM 36.2481 -77.4514 38° Northeast 450 518 35,000  Level Washington Center
Tue 11:39:51 AM 36.3497 -77.3558 37° Northeast 450 518 35,000  Level Washington Center
Tue 11:40:49 AM 36.4511 -77.2628 36° Northeast 450 518 35,000  Level Washington Center
Tue 11:41:50 AM 36.5461 -77.1717 38° Northeast 450 518 35,000  Level Washington Center
Tue 11:42:51 AM 36.6497 -77.0728 37° Northeast 460 529 35,000  Level Washington Center
Tue 11:43:49 AM 36.7553 -76.9736 37° Northeast 470 541 35,000  Level Washington Center
Tue 11:44:49 AM 36.8606 -76.8794 36° Northeast 470 541 35,000  Level Washington Center
Tue 11:45:49 AM 36.9658 -76.7850 36° Northeast 464 534 35,000  Level Washington Center
Tue 11:46:50 AM 37.0711 -76.6903 36° Northeast 464 534 35,000  Level Washington Center
Tue 11:47:51 AM 37.1761 -76.5928 36° Northeast 459 528 35,000  Level Washington Center
Tue 11:48:51 AM 37.2814 -76.4975 36° Northeast 459 528 35,000  Level Washington Center
Tue 11:49:49 AM 37.3864 -76.3994 37° Northeast 459 528 35,000  Level Washington Center
Tue 11:50:49 AM 37.5036 -76.2961 35° Northeast 464 534 35,000  Level Washington Center
Tue 11:51:50 AM 37.6086 -76.1975 37° Northeast 464 534 35,000  Level Washington Center
Tue 11:52:50 AM 37.7175 -76.1064 33° Northeast 464 534 35,000  Level Washington Center
Tue 11:53:51 AM 37.8181 -76.0044 39° Northeast 464 534 35,000  Level Washington Center
Tue 11:54:51 AM 37.9244 -75.9050 36° Northeast 464 534 35,000  Level Washington Center
Tue 11:55:51 AM 38.0311 -75.8131 34° Northeast 464 534 35,000  Level Washington Center
Tue 11:56:49 AM 38.1333 -75.7078 39° Northeast 464 534 35,000  Level Washington Center
Tue 11:57:50 AM 38.2397 -75.6075 37° Northeast 464 534 35,000  Level Washington Center
Tue 11:58:51 AM 38.3503 -75.5203 32° Northeast 464 534 35,000  Level Washington Center
Tue 11:59:49 AM 38.4669 -75.4539 24° Northeast 451 519 35,000 -50 Level Washington Center
Tue 12:00:50 PM 38.5878 -75.4083 16° North 451 519 34,900 -49 Descending Washington Center
Tue 12:01:51 PM 38.7108 -75.3603 17° North 451 519 34,900 50 Level Washington Center
Tue 12:02:51 PM 38.8336 -75.3119 17° North 451 519 35,000 50 Climbing Washington Center
Tue 12:03:51 PM 38.9544 -75.2553 20° North 451 519 35,000  Level Washington Center
Tue 12:04:51 PM 39.0731 -75.2067 18° North 456 525 35,000  Level Washington Center
Tue 12:05:49 PM 39.1958 -75.1550 18° North 456 525 35,000  Level Washington Center
Tue 12:06:50 PM 39.3125 -75.0900 23° Northeast 456 525 35,000  Level Washington Center
Tue 12:07:51 PM 39.4203 -74.9953 34° Northeast 456 525 35,000  Level Washington Center
Tue 12:08:49 PM 39.5239 -74.8919 38° Northeast 463 533 35,000  Level Washington Center
Tue 12:09:50 PM 39.6275 -74.7886 38° Northeast 463 533 35,000  Level Washington Center
Tue 12:11:04 PM 39.7575 -74.6619 37° Northeast 454 522 35,000  Level New York Center
Tue 12:12:06 PM 39.8589 -74.5594 38° Northeast 454 522 35,000  Level New York Center
Tue 12:13:06 PM 39.9536 -74.4644 38° Northeast 454 522 35,000  Level New York Center
Tue 12:14:03 PM 40.0569 -74.3586 38° Northeast 459 528 35,000  Level New York Center
Tue 12:15:04 PM 40.1558 -74.2553 39° Northeast 459 528 35,000  Level New York Center
Tue 12:16:04 PM 40.2531 -74.1433 41° Northeast 459 528 35,000 -558 Level New York Center
Tue 12:18:50 PM 40.5244 -73.8353 41° Northeast 471 542 32,900 -1,354 Descending Boston Center
Tue 12:19:50 PM 40.6217 -73.7253 41° Northeast 453 521 29,900 -2,950 Descending Boston Center
Tue 12:20:50 PM 40.7147 -73.6064 44° Northeast 453 521 27,000 -2,800 Descending Boston Center
Tue 12:21:50 PM 40.8094 -73.4958 41° Northeast 448 516 24,300 -1,500 Descending Boston Center
Tue 12:22:50 PM 40.8961 -73.3792 45° Northeast 448 516 24,000 -200 Descending Boston Center
Tue 12:23:50 PM 40.9803 -73.2622 46° Northeast 443 510 23,900 -500 Descending Boston Center
Tue 12:24:50 PM 41.0644 -73.1422 47° Northeast 443 510 23,000 -450 Descending Boston Center
Tue 12:25:50 PM 41.1464 -73.0133 50° Northeast 443 510 23,000  Level Boston Center
Tue 12:26:50 PM 41.2219 -72.8844 52° Northeast 443 510 23,000  Level Boston Center
Tue 12:27:50 PM 41.2767 -72.7272 65° Northeast 443 510 23,000  Level Boston Center
Tue 12:28:50 PM 41.3311 -72.5700 65° Northeast 454 522 23,000  Level Boston Center
Tue 12:29:50 PM 41.3875 -72.4069 65° Northeast 449 517 23,000  Level Boston Center
Tue 12:30:50 PM 41.4311 -72.2822 65° Northeast 449 517 23,000 -400 Level Boston Center
Tue 12:31:50 PM 41.4892 -72.1186 65° Northeast 444 511 22,200 -1,900 Descending Boston Center
Tue 12:32:50 PM 41.5386 -71.9714 66° East 438 504 19,200 -2,750 Descending Boston Center
Tue 12:33:50 PM 41.5881 -71.8322 65° Northeast 421 484 16,700 -2,850 Descending Boston Center
Tue 12:34:50 PM 41.6372 -71.6956 64° Northeast 409 471 13,500 -2,800 Descending Boston Center
Tue 12:35:50 PM 41.6822 -71.5617 66° East 399 459 11,100 -1,250 Descending Boston Center
Tue 12:36:50 PM 41.7208 -71.4528 65° Northeast 363 418 11,000 -50 Descending Boston Center
Tue 12:37:50 PM 41.7658 -71.3658 55° Northeast 313 360 11,000  Level Boston Center
Tue 12:38:50 PM 41.8214 -71.2925 45° Northeast 289 333 11,000 -400 Level Boston Center
Tue 12:39:50 PM 41.8875 -71.2353 33° Northeast 276 318 10,200 -1,250 Descending Boston Center
Tue 12:40:50 PM 41.9622 -71.2006 19° North 271 312 8,500 -1,500 Descending Boston Center
Tue 12:41:50 PM 42.0347 -71.1683 18° North 271 312 7,200 -1,100 Descending Boston Center
Tue 12:42:50 PM 42.0950 -71.1392 20° North 247 284 6,300 -1,074 Descending Boston Center
Tue 12:43:25 PM 42.1333 -71.1167 24° Northeast 189 217 5,500 -1,485 Descending KA90
Tue 12:44:31 PM 42.1833 -71.1000 14° North 178 205 3,800 -1,263 Descending KA90
Tue 12:45:19 PM 42.2167 -71.0833 20° North 177 204 3,100 -1,000 Descending KA90
Tue 12:46:37 PM 42.2833 -71.0500 20° North 184 212 1,700 -957 Descending KA90
Tue 12:47:37 PM 42.3167 -71.0333 20° North 145 167 900 -778 Descending KA90
Tue 12:48:25 PM 42.3500 -71.0167 20° North 134 154 300 -750 Descending KA90

Login

Don't have an account? Register now (free) for customized features, flight alerts, and more!